createdAt,value
2018-10-18T00:03:56.008Z,55.3
2018-10-18T00:15:11.696Z,55.0
2018-10-18T00:26:38.764Z,45.3
2018-10-18T00:37:49.715Z,48.8
2018-10-18T00:48:41.505Z,36.4
2018-10-18T01:00:00.201Z,34.8
2018-10-18T01:11:03.939Z,35.8
2018-10-18T01:21:51.359Z,37.5
2018-10-18T01:33:02.883Z,36.8
2018-10-18T01:44:44.012Z,42.2
2018-10-18T01:56:12.069Z,35.5
2018-10-18T02:18:32.081Z,32.2
2018-10-18T02:29:59.523Z,33.4
2018-10-18T02:41:24.273Z,36.0
2018-10-18T02:52:35.253Z,37.3
2018-10-18T03:04:07.963Z,34.3
2018-10-18T03:15:45.106Z,33.1
2018-10-18T03:39:09.360Z,35.2
2018-10-18T03:51:56.119Z,34.4
2018-10-18T04:32:02.140Z,32.4
2018-10-18T04:54:42.254Z,34.9
2018-10-18T05:15:15.575Z,31.7
2018-10-18T05:26:09.134Z,35.5
2018-10-18T05:40:51.975Z,35.7
2018-10-18T05:55:35.279Z,42.3
2018-10-18T06:09:09.384Z,59.7
2018-10-18T07:16:02.471Z,63.8
2018-10-18T07:58:31.788Z,45.7
2018-10-18T08:29:52.354Z,48.1
2018-10-18T08:41:46.124Z,39.4
2018-10-18T09:15:10.806Z,36.1
2018-10-18T09:25:26.288Z,32.1
2018-10-18T11:17:08.493Z,49.7
2018-10-18T12:34:20.020Z,29.5
2018-10-18T12:59:48.430Z,28.7
2018-10-18T13:10:46.001Z,35.3
2018-10-18T14:03:17.338Z,44.8
2018-10-18T14:14:15.528Z,29.4
2018-10-18T14:25:35.478Z,28.7
2018-10-18T14:58:50.817Z,28.0
2018-10-18T15:25:56.267Z,32.2
2018-10-18T15:38:06.875Z,28.1
2018-10-18T17:27:32.212Z,32.0
2018-10-18T17:50:46.755Z,33.4
2018-10-18T18:24:39.290Z,30.3
2018-10-18T18:36:24.213Z,37.8
2018-10-18T18:47:31.324Z,30.0
2018-10-18T19:12:29.772Z,33.7
2018-10-18T19:24:18.881Z,36.4
2018-10-18T19:34:33.337Z,30.0
2018-10-18T19:45:18.934Z,28.1
2018-10-18T19:56:05.033Z,29.5
2018-10-18T20:06:16.661Z,27.0
2018-10-18T20:17:29.414Z,30.1
2018-10-18T20:29:06.503Z,32.1
2018-10-18T20:49:00.839Z,27.7
2018-10-18T21:00:40.313Z,27.1
2018-10-18T21:12:36.346Z,28.4
2018-10-18T21:24:17.329Z,27.0
2018-10-18T21:36:08.584Z,28.9
2018-10-18T21:47:33.781Z,30.9
2018-10-18T21:59:49.172Z,27.7
2018-10-18T22:13:03.495Z,29.5
2018-10-18T22:24:20.463Z,29.0
2018-10-18T22:36:46.639Z,28.5
2018-10-18T22:48:49.390Z,28.6
2018-10-18T23:00:32.028Z,27.3
2018-10-18T23:12:19.333Z,35.6
2018-10-18T23:23:49.297Z,26.0
2018-10-18T23:35:04.755Z,26.7
2018-10-18T23:47:07.942Z,52.4
2018-10-18T23:59:05.561Z,51.6
